Time;durP1;ratioP1;P1;durP2;ratioP2;P2;SDS_P1;SDS_P2;PMS_P1;PMS_P2;Temp;Humidity;BMP_temperature;BMP_pressure;BME280_temperature;BME280_humidity;BME280_pressure;Samples;Min_cycle;Max_cycle;Signal;HPM_P1;HPM_P2
2023/08/10 00:01:48;;;;;;;3.65;0.80;;;24.90;84.80;;;;;;4926323;29;20039;-84
2023/08/10 00:04:14;;;;;;;1.77;0.88;;;24.90;84.70;;;;;;4947626;29;20027;-85
2023/08/10 00:06:39;;;;;;;1.00;0.80;;;24.90;84.70;;;;;;4955061;29;20139;-85
2023/08/10 00:09:07;;;;;;;1.05;0.70;;;24.90;84.70;;;;;;4955045;29;20038;-85
2023/08/10 00:11:33;;;;;;;1.55;0.80;;;24.90;84.90;;;;;;4955898;29;20030;-85
2023/08/10 00:13:59;;;;;;;1.70;1.00;;;24.90;85.00;;;;;;4952608;29;20386;-85
2023/08/10 00:16:25;;;;;;;1.00;0.70;;;24.90;85.30;;;;;;4951407;29;20039;-85
2023/08/10 00:18:51;;;;;;;1.20;0.70;;;24.90;85.40;;;;;;4954187;29;20042;-85
2023/08/10 00:21:16;;;;;;;1.30;0.90;;;24.90;85.30;;;;;;4955031;29;20031;-85
2023/08/10 00:23:42;;;;;;;2.25;0.95;;;25.00;85.00;;;;;;4946762;29;20039;-85
2023/08/10 00:26:08;;;;;;;3.47;0.80;;;25.00;85.00;;;;;;4931151;29;20039;-85
2023/08/10 00:28:34;;;;;;;1.13;0.80;;;24.90;84.80;;;;;;4954149;29;20043;-85
2023/08/10 00:31:00;;;;;;;2.22;0.82;;;25.00;84.60;;;;;;4953979;29;20024;-85
2023/08/10 00:33:25;;;;;;;1.63;0.90;;;25.00;84.60;;;;;;4947965;29;20050;-84
2023/08/10 00:35:51;;;;;;;0.90;0.75;;;25.00;84.90;;;;;;4950293;29;20434;-84
2023/08/10 00:38:17;;;;;;;1.60;0.80;;;25.00;85.10;;;;;;4944012;29;20038;-84
2023/08/10 00:40:42;;;;;;;1.38;1.00;;;24.90;85.50;;;;;;4953756;29;20467;-83
2023/08/10 00:43:08;;;;;;;2.25;1.10;;;24.90;85.10;;;;;;4945491;29;20492;-82
2023/08/10 00:45:34;;;;;;;1.75;0.95;;;24.90;84.90;;;;;;4949733;29;20071;-84
2023/08/10 00:48:00;;;;;;;2.42;1.00;;;24.90;84.60;;;;;;4948578;29;20027;-83
2023/08/10 00:50:26;;;;;;;2.10;1.00;;;24.90;84.50;;;;;;4934237;29;20093;-90
2023/08/10 00:52:52;;;;;;;1.20;0.90;;;24.80;84.30;;;;;;4957317;29;20046;-92
2023/08/10 00:55:18;;;;;;;2.05;0.90;;;24.80;84.20;;;;;;4961800;28;20025;-92
2023/08/10 00:57:44;;;;;;;2.42;1.02;;;24.80;84.60;;;;;;4959075;28;20063;-91
2023/08/10 01:00:11;;;;;;;2.92;1.23;;;24.80;84.60;;;;;;4956634;29;20086;-83
2023/08/10 01:02:39;;;;;;;2.15;1.20;;;24.80;84.70;;;;;;4957210;28;20023;-84
2023/08/10 01:05:11;;;;;;;4.05;1.38;;;24.80;84.60;;;;;;4938928;29;20058;-84
2023/08/10 01:07:48;;;;;;;2.10;1.00;;;24.80;84.70;;;;;;4931703;28;20415;-83
2023/08/10 01:10:33;;;;;;;1.67;0.98;;;24.80;84.70;;;;;;4936408;28;20035;-90
2023/08/10 01:13:17;;;;;;;1.63;0.93;;;24.80;84.80;;;;;;4939959;28;20481;-83
2023/08/10 01:15:50;;;;;;;1.80;1.10;;;24.70;84.70;;;;;;4945469;29;20436;-82
2023/08/10 01:18:19;;;;;;;3.67;1.20;;;24.70;84.80;;;;;;4939020;29;20035;-83
2023/08/10 01:20:47;;;;;;;3.13;1.10;;;24.70;84.90;;;;;;4946147;29;20114;-82
2023/08/10 01:23:23;;;;;;;2.20;1.20;;;24.70;85.00;;;;;;4942594;29;20082;-82
2023/08/10 01:25:52;;;;;;;1.35;1.00;;;24.70;84.80;;;;;;4951818;29;20062;-82
2023/08/10 01:28:17;;;;;;;4.07;1.40;;;24.60;84.70;;;;;;4952366;29;20062;-82
2023/08/10 01:30:44;;;;;;;2.13;0.98;;;24.60;84.70;;;;;;4940958;28;20063;-83
2023/08/10 01:33:10;;;;;;;3.45;1.17;;;24.70;84.90;;;;;;4941714;29;20433;-82
2023/08/10 01:35:37;;;;;;;3.78;1.00;;;24.60;85.00;;;;;;4945080;29;20418;-82
2023/08/10 01:38:06;;;;;;;3.22;1.40;;;24.70;85.20;;;;;;4950762;29;20124;-82
2023/08/10 01:40:32;;;;;;;2.03;1.20;;;24.60;85.20;;;;;;4932318;29;20035;-82
2023/08/10 01:42:58;;;;;;;1.88;1.20;;;24.60;85.20;;;;;;4952499;29;20118;-81
2023/08/10 01:45:24;;;;;;;1.95;1.27;;;24.60;85.20;;;;;;4947477;29;20558;-82
2023/08/10 01:48:12;;;;;;;3.53;1.30;;;24.60;85.30;;;;;;4940891;29;20094;-82
2023/08/10 01:50:44;;;;;;;2.65;1.30;;;24.60;85.10;;;;;;4949901;29;20042;-82
2023/08/10 01:53:15;;;;;;;3.60;1.20;;;24.60;85.20;;;;;;4947789;29;20126;-82
2023/08/10 01:55:41;;;;;;;1.77;1.20;;;24.60;85.00;;;;;;4952975;29;20101;-82
2023/08/10 01:58:07;;;;;;;1.42;1.00;;;24.50;84.90;;;;;;4949235;29;20054;-82
2023/08/10 02:00:37;;;;;;;1.13;0.98;;;24.50;85.10;;;;;;4933705;29;20110;-82
2023/08/10 02:03:06;;;;;;;2.47;1.20;;;24.50;85.30;;;;;;4952187;29;20120;-82
2023/08/10 02:05:32;;;;;;;2.43;1.00;;;24.50;85.10;;;;;;4947378;29;20061;-82
2023/08/10 02:07:58;;;;;;;2.47;1.20;;;24.40;84.90;;;;;;4943887;29;20028;-83
2023/08/10 02:10:24;;;;;;;2.40;1.10;;;24.50;84.90;;;;;;4949634;29;20023;-83
2023/08/10 02:12:50;;;;;;;1.95;1.05;;;24.50;85.00;;;;;;4952930;29;20043;-82
2023/08/10 02:15:15;;;;;;;3.05;1.10;;;24.40;85.00;;;;;;4934638;28;20094;-83
2023/08/10 02:17:41;;;;;;;1.50;0.95;;;24.40;84.90;;;;;;4924755;29;20031;-86
2023/08/10 02:20:12;;;;;;;6.35;1.30;;;24.40;84.80;;;;;;4953608;29;20530;-87
2023/08/10 02:22:50;;;;;;;2.72;1.35;;;24.40;85.00;;;;;;4949882;29;20047;-88
2023/08/10 02:25:17;;;;;;;3.47;0.80;;;24.40;85.40;;;;;;4950974;28;20033;-88
2023/08/10 02:27:43;;;;;;;2.75;1.00;;;24.40;85.00;;;;;;4949610;29;20063;-88
2023/08/10 02:30:10;;;;;;;1.98;1.13;;;24.40;85.10;;;;;;4946154;29;20024;-85
2023/08/10 02:32:36;;;;;;;1.90;1.00;;;24.40;84.90;;;;;;4930417;29;20055;-86
2023/08/10 02:35:05;;;;;;;1.58;0.95;;;24.40;84.90;;;;;;4945639;28;20035;-84
2023/08/10 02:37:32;;;;;;;1.73;0.90;;;24.30;84.70;;;;;;4935716;29;20378;-84
2023/08/10 02:39:58;;;;;;;1.48;1.08;;;24.30;84.80;;;;;;4953185;29;20031;-86
2023/08/10 02:42:24;;;;;;;2.60;1.08;;;24.30;84.80;;;;;;4947533;29;20051;-86
2023/08/10 02:44:51;;;;;;;3.35;1.20;;;24.20;84.80;;;;;;4931179;29;20043;-85
2023/08/10 02:47:17;;;;;;;2.58;1.23;;;24.30;84.90;;;;;;4925484;29;20027;-83
2023/08/10 02:49:43;;;;;;;2.75;0.82;;;24.30;85.00;;;;;;4948000;29;20015;-81
2023/08/10 02:52:09;;;;;;;2.13;1.10;;;24.30;84.70;;;;;;4944839;29;20048;-82
2023/08/10 02:54:35;;;;;;;1.70;1.00;;;24.30;84.60;;;;;;4928459;29;20166;-84
2023/08/10 02:57:01;;;;;;;1.20;0.93;;;24.30;84.60;;;;;;4946033;29;20138;-84
2023/08/10 02:59:27;;;;;;;2.95;1.00;;;24.20;84.30;;;;;;4948458;29;20422;-84
2023/08/10 03:01:53;;;;;;;2.33;1.13;;;24.30;84.50;;;;;;4944765;29;20035;-84
2023/08/10 03:07:14;;;;;;;1.30;1.00;;;24.30;84.70;;;;;;4972109;28;20053;-91
2023/08/10 03:09:41;;;;;;;1.20;0.75;;;24.20;84.50;;;;;;4973061;28;20472;-92
2023/08/10 03:12:08;;;;;;;2.67;0.95;;;24.20;84.80;;;;;;4982590;28;20477;-83
2023/08/10 03:14:34;;;;;;;1.50;0.90;;;24.20;84.50;;;;;;4965394;28;20361;-92
2023/08/10 03:16:59;;;;;;;1.00;0.80;;;24.20;84.50;;;;;;4965618;28;20042;-84
2023/08/10 03:19:25;;;;;;;2.15;1.27;;;24.20;85.20;;;;;;4969492;28;20023;-83
2023/08/10 03:21:51;;;;;;;2.13;1.10;;;24.20;84.70;;;;;;4968827;28;20034;-83
2023/08/10 03:24:17;;;;;;;2.78;1.17;;;24.10;84.70;;;;;;4966789;28;20073;-84
2023/08/10 03:26:42;;;;;;;2.13;1.02;;;24.10;84.60;;;;;;4963407;28;20027;-84
2023/08/10 03:29:08;;;;;;;1.70;0.80;;;24.10;84.60;;;;;;4962739;28;20029;-84
2023/08/10 03:31:34;;;;;;;2.75;1.00;;;24.10;84.50;;;;;;4969747;28;20047;-84
2023/08/10 03:33:59;;;;;;;2.53;1.10;;;24.10;84.60;;;;;;4971183;28;20042;-83
2023/08/10 03:36:25;;;;;;;2.10;0.65;;;24.10;84.40;;;;;;4946783;28;20027;-93
2023/08/10 03:38:51;;;;;;;1.77;0.98;;;24.10;84.50;;;;;;4965252;28;20035;-92
2023/08/10 03:41:17;;;;;;;1.52;0.80;;;24.10;84.50;;;;;;4977812;28;20027;-93
2023/08/10 03:43:42;;;;;;;2.10;1.00;;;24.10;84.40;;;;;;4977331;28;20055;-93
2023/08/10 03:46:08;;;;;;;1.48;0.95;;;24.10;84.40;;;;;;4966363;28;20077;-92
2023/08/10 03:48:34;;;;;;;2.20;0.90;;;24.00;84.40;;;;;;4970177;28;20046;-90
2023/08/10 03:50:59;;;;;;;1.13;0.80;;;23.90;84.50;;;;;;4972935;28;20144;-86
2023/08/10 03:53:25;;;;;;;2.35;1.15;;;23.90;84.40;;;;;;4947541;28;20032;-86
2023/08/10 03:55:51;;;;;;;2.50;0.82;;;23.90;84.50;;;;;;4970949;28;20518;-85
2023/08/10 03:58:17;;;;;;;2.70;1.00;;;23.90;84.50;;;;;;4967764;28;20037;-86
2023/08/10 04:00:45;;;;;;;1.17;0.90;;;23.90;84.80;;;;;;4965835;28;21655;-87
2023/08/10 04:03:14;;;;;;;1.75;0.95;;;23.80;84.80;;;;;;4952923;28;20114;-84
2023/08/10 04:05:39;;;;;;;3.58;1.00;;;23.80;84.90;;;;;;4969335;28;20038;-84
2023/08/10 04:08:09;;;;;;;2.20;1.25;;;23.80;84.80;;;;;;4972356;28;20391;-86
2023/08/10 04:10:35;;;;;;;1.48;0.73;;;23.80;84.80;;;;;;4969004;28;20027;-84
2023/08/10 04:13:02;;;;;;;0.80;0.73;;;23.80;84.90;;;;;;4969425;28;20035;-87
2023/08/10 04:15:29;;;;;;;1.10;0.70;;;23.80;85.00;;;;;;4975107;28;20473;-89
2023/08/10 04:17:55;;;;;;;3.42;1.23;;;23.80;85.00;;;;;;4975898;28;20078;-89
2023/08/10 04:20:21;;;;;;;2.42;1.13;;;23.70;84.80;;;;;;4973288;28;20023;-88
2023/08/10 04:22:47;;;;;;;1.00;0.85;;;23.70;85.00;;;;;;4968832;28;20041;-88
2023/08/10 04:25:12;;;;;;;1.70;0.93;;;23.70;85.00;;;;;;4972760;28;20386;-89
2023/08/10 04:27:38;;;;;;;1.80;0.95;;;23.70;85.10;;;;;;4971973;28;20105;-89
2023/08/10 04:30:08;;;;;;;2.28;1.20;;;23.70;85.20;;;;;;4969000;28;20023;-90
2023/08/10 04:32:34;;;;;;;;;;;23.70;85.20;;;;;;4955537;28;20488;-82
2023/08/10 04:35:00;;;;;;;2.17;0.80;;;23.70;85.10;;;;;;4967548;28;19946;-81
2023/08/10 04:37:26;;;;;;;1.88;0.98;;;23.70;85.10;;;;;;4951968;28;20051;-80
2023/08/10 04:39:52;;;;;;;1.05;0.82;;;23.70;85.20;;;;;;4971301;28;20041;-80
2023/08/10 04:42:18;;;;;;;1.60;0.98;;;23.60;85.20;;;;;;4973931;28;20034;-80
2023/08/10 04:44:44;;;;;;;1.90;1.27;;;23.70;85.30;;;;;;4953937;28;20077;-80
2023/08/10 04:47:09;;;;;;;1.90;1.02;;;23.60;85.30;;;;;;4976036;28;20507;-76
2023/08/10 04:49:35;;;;;;;1.35;0.80;;;23.60;85.10;;;;;;4973430;28;20031;-80
2023/08/10 04:52:01;;;;;;;1.40;0.85;;;23.60;85.00;;;;;;4941755;28;20019;-78
2023/08/10 04:54:27;;;;;;;1.17;1.00;;;23.60;85.00;;;;;;4953885;28;20030;-78
2023/08/10 04:56:52;;;;;;;1.60;1.00;;;23.60;85.10;;;;;;4969191;28;20031;-79
2023/08/10 04:59:18;;;;;;;0.98;0.88;;;23.60;85.00;;;;;;4956468;28;20034;-78
2023/08/10 05:01:44;;;;;;;2.92;0.95;;;23.60;85.00;;;;;;4966545;28;20110;-80
2023/08/10 05:04:10;;;;;;;0.95;0.70;;;23.60;84.80;;;;;;4973463;28;20081;-88
2023/08/10 05:06:36;;;;;;;1.65;0.88;;;23.60;84.80;;;;;;4974830;28;20114;-88
2023/08/10 05:09:04;;;;;;;2.40;0.90;;;23.60;85.00;;;;;;4975764;28;20492;-87
2023/08/10 05:11:30;;;;;;;1.77;0.90;;;23.60;85.00;;;;;;4975582;28;20017;-87
2023/08/10 05:13:55;;;;;;;1.92;1.10;;;23.60;85.10;;;;;;4975627;28;20033;-88
2023/08/10 05:16:21;;;;;;;2.30;1.10;;;23.60;85.10;;;;;;4975413;28;20031;-88
2023/08/10 05:18:47;;;;;;;4.68;1.10;;;23.60;85.10;;;;;;4975588;28;20153;-88
2023/08/10 05:21:13;;;;;;;3.08;1.27;;;23.60;85.50;;;;;;4976373;28;20341;-88
2023/08/10 05:23:40;;;;;;;2.53;1.20;;;23.60;85.40;;;;;;4975642;28;20027;-88
2023/08/10 05:26:07;;;;;;;3.95;1.20;;;23.60;85.40;;;;;;4975574;28;20030;-87
2023/08/10 05:28:33;;;;;;;1.58;1.15;;;23.70;85.40;;;;;;4976169;28;20117;-88
2023/08/10 05:30:59;;;;;;;1.60;1.25;;;23.60;85.10;;;;;;4975701;28;20122;-87
2023/08/10 05:33:24;;;;;;;1.73;1.05;;;23.70;85.20;;;;;;4973493;28;20023;-87
2023/08/10 05:35:50;;;;;;;4.32;1.10;;;23.70;85.30;;;;;;4970221;28;20527;-88
2023/08/10 05:38:25;;;;;;;4.43;1.50;;;23.70;85.20;;;;;;4968478;28;20109;-87
2023/08/10 05:40:51;;;;;;;1.20;0.95;;;23.70;84.70;;;;;;4975140;28;20031;-87
2023/08/10 05:43:17;;;;;;;1.58;0.90;;;23.70;84.70;;;;;;4975407;28;20027;-86
2023/08/10 05:45:42;;;;;;;3.22;0.85;;;23.70;84.70;;;;;;4975372;28;20023;-86
2023/08/10 05:48:12;;;;;;;1.88;1.10;;;23.80;84.90;;;;;;4969561;28;20023;-88
2023/08/10 05:50:38;;;;;;;1.40;0.90;;;23.80;84.90;;;;;;4973518;28;20034;-87
2023/08/10 05:53:05;;;;;;;1.65;1.00;;;23.80;84.70;;;;;;4973726;28;20381;-87
2023/08/10 05:55:31;;;;;;;1.13;1.00;;;23.90;84.80;;;;;;4973865;28;20026;-87
2023/08/10 05:57:57;;;;;;;2.25;1.02;;;23.90;84.60;;;;;;4964123;28;20031;-87
2023/08/10 06:00:22;;;;;;;1.88;1.00;;;23.90;84.70;;;;;;4971300;28;20460;-88
2023/08/10 06:02:50;;;;;;;1.52;0.90;;;23.90;84.70;;;;;;4974386;28;20033;-88
2023/08/10 06:05:16;;;;;;;3.25;1.13;;;23.90;84.50;;;;;;4972644;28;20461;-88
2023/08/10 06:07:42;;;;;;;1.10;0.98;;;24.00;84.50;;;;;;4964489;28;20019;-88
2023/08/10 06:10:08;;;;;;;1.48;1.10;;;24.00;84.30;;;;;;4967970;28;20030;-87
2023/08/10 06:12:34;;;;;;;1.00;0.90;;;24.10;84.10;;;;;;4961787;28;20027;-88
2023/08/10 06:15:00;;;;;;;4.88;1.00;;;24.10;84.20;;;;;;4965231;28;20038;-88
2023/08/10 06:17:26;;;;;;;2.60;1.17;;;24.20;84.10;;;;;;4973522;28;20033;-88
2023/08/10 06:19:53;;;;;;;2.55;1.25;;;24.20;83.80;;;;;;4974009;28;20042;-88
2023/08/10 06:22:19;;;;;;;3.33;1.00;;;24.30;83.40;;;;;;4973758;28;20088;-87
2023/08/10 06:24:46;;;;;;;1.23;1.05;;;24.30;83.10;;;;;;4973640;28;20035;-88
2023/08/10 06:27:12;;;;;;;2.50;1.00;;;24.30;83.20;;;;;;4973700;28;20023;-88
2023/08/10 06:29:38;;;;;;;1.92;0.93;;;24.40;82.80;;;;;;4974431;28;20031;-88
2023/08/10 06:32:06;;;;;;;1.85;0.90;;;24.30;82.60;;;;;;4946560;28;20035;-88
2023/08/10 06:34:31;;;;;;;0.98;0.88;;;24.40;82.40;;;;;;4955003;28;20031;-88
2023/08/10 06:36:57;;;;;;;1.55;0.90;;;24.40;82.50;;;;;;4973028;28;20023;-88
2023/08/10 06:39:24;;;;;;;1.40;1.05;;;24.40;82.50;;;;;;4974092;28;20026;-87
2023/08/10 06:41:49;;;;;;;2.47;1.00;;;24.50;82.60;;;;;;4974218;28;20011;-88
2023/08/10 06:44:15;;;;;;;1.40;1.10;;;24.60;82.60;;;;;;4968802;28;20117;-88
2023/08/10 06:46:41;;;;;;;1.92;0.85;;;24.70;82.50;;;;;;4993911;28;20032;-86
2023/08/10 06:49:07;;;;;;;1.67;0.95;;;24.70;82.00;;;;;;4964878;28;20042;-87
2023/08/10 06:51:33;;;;;;;1.45;0.80;;;24.70;81.50;;;;;;4973819;28;20027;-87
2023/08/10 06:53:59;;;;;;;4.10;0.90;;;24.80;81.80;;;;;;4972181;28;20484;-88
2023/08/10 06:56:25;;;;;;;1.27;0.80;;;24.70;81.20;;;;;;4972911;28;20026;-87
2023/08/10 06:58:51;;;;;;;3.22;1.10;;;24.80;81.60;;;;;;4972273;28;20536;-87
2023/08/10 07:01:17;;;;;;;3.67;0.98;;;24.80;81.00;;;;;;4969509;28;20114;-88
2023/08/10 07:03:43;;;;;;;2.33;0.90;;;24.80;80.90;;;;;;4964880;28;20117;-88
2023/08/10 07:06:08;;;;;;;3.63;1.05;;;24.80;80.70;;;;;;4973119;28;20031;-87
2023/08/10 07:08:34;;;;;;;3.42;1.00;;;24.80;80.30;;;;;;4962560;28;20114;-88
2023/08/10 07:11:02;;;;;;;1.23;0.95;;;24.90;80.10;;;;;;4976867;28;20034;-87
2023/08/10 07:13:28;;;;;;;1.98;1.13;;;25.00;79.80;;;;;;4966993;28;20027;-88
2023/08/10 07:15:54;;;;;;;2.00;1.08;;;25.00;78.50;;;;;;4972530;28;20543;-87
2023/08/10 07:18:19;;;;;;;1.77;1.02;;;25.00;79.00;;;;;;4974843;28;20609;-88
2023/08/10 07:20:45;;;;;;;1.73;1.27;;;25.00;79.10;;;;;;4970325;28;20030;-88
2023/08/10 07:23:11;;;;;;;5.50;1.45;;;25.10;78.90;;;;;;4975890;28;20153;-87
2023/08/10 07:25:37;;;;;;;1.70;1.20;;;25.10;78.80;;;;;;4975703;28;20089;-88
2023/08/10 07:28:05;;;;;;;1.83;1.27;;;25.10;78.80;;;;;;4972911;28;20502;-88
2023/08/10 07:30:31;;;;;;;1.83;1.17;;;25.10;78.80;;;;;;4971117;28;20055;-86
2023/08/10 07:32:57;;;;;;;1.85;1.00;;;25.20;79.00;;;;;;4975025;28;20055;-88
2023/08/10 07:35:23;;;;;;;2.30;1.15;;;25.20;78.60;;;;;;4970851;28;20033;-88
2023/08/10 07:37:49;;;;;;;4.00;1.30;;;25.20;78.80;;;;;;4975385;28;20041;-87
2023/08/10 07:40:16;;;;;;;4.90;1.45;;;25.30;78.60;;;;;;4975731;28;20064;-88
2023/08/10 07:42:42;;;;;;;1.65;1.00;;;25.30;78.80;;;;;;4976384;28;20035;-88
2023/08/10 07:45:11;;;;;;;2.13;1.13;;;25.30;78.50;;;;;;4976342;28;20033;-88
2023/08/10 07:47:37;;;;;;;2.08;1.15;;;25.40;78.80;;;;;;4977663;28;20027;-88
2023/08/10 07:50:04;;;;;;;2.60;1.38;;;25.40;78.60;;;;;;4977792;28;20450;-88
2023/08/10 07:52:30;;;;;;;2.55;1.25;;;25.40;78.60;;;;;;4977556;28;20031;-88
2023/08/10 07:54:55;;;;;;;2.00;1.10;;;25.50;78.70;;;;;;4977006;28;20026;-88
2023/08/10 07:57:21;;;;;;;1.75;1.38;;;25.60;79.10;;;;;;4960314;28;20531;-87
2023/08/10 07:59:47;;;;;;;2.15;1.10;;;25.60;78.80;;;;;;4977350;28;20657;-88
2023/08/10 08:02:13;;;;;;;1.65;1.00;;;25.60;78.50;;;;;;4977064;28;20480;-88
2023/08/10 08:04:38;;;;;;;3.78;1.10;;;25.70;78.30;;;;;;4959489;28;20085;-88
2023/08/10 08:07:04;;;;;;;3.10;1.60;;;25.70;78.50;;;;;;4977141;28;20047;-88
2023/08/10 08:09:29;;;;;;;2.38;1.23;;;25.70;78.40;;;;;;4977330;28;20031;-88
2023/08/10 08:11:55;;;;;;;3.30;1.17;;;25.80;77.90;;;;;;4977095;28;20454;-88
2023/08/10 08:14:21;;;;;;;1.35;1.02;;;25.80;77.70;;;;;;4977204;28;20031;-88
2023/08/10 08:16:46;;;;;;;1.80;1.20;;;25.90;77.80;;;;;;4976286;28;20448;-88
2023/08/10 08:19:12;;;;;;;1.85;1.10;;;25.90;77.70;;;;;;4977134;28;20062;-87
2023/08/10 08:21:38;;;;;;;1.58;1.15;;;26.00;77.60;;;;;;4976305;28;20027;-87
2023/08/10 08:24:04;;;;;;;2.20;1.40;;;26.10;76.80;;;;;;4976269;28;20031;-88
2023/08/10 08:26:32;;;;;;;1.52;0.95;;;26.00;76.60;;;;;;4977049;28;20089;-88
2023/08/10 08:28:58;;;;;;;3.38;1.10;;;26.00;76.90;;;;;;4960055;28;20019;-88
2023/08/10 08:31:25;;;;;;;3.97;1.27;;;26.00;76.80;;;;;;4976371;28;20022;-88
2023/08/10 08:33:51;;;;;;;4.30;1.50;;;26.00;77.10;;;;;;4974964;28;22229;-88
2023/08/10 08:36:17;;;;;;;1.10;0.85;;;26.00;76.90;;;;;;4976410;28;20161;-87
2023/08/10 08:38:43;;;;;;;4.00;1.10;;;26.10;77.20;;;;;;4947585;28;20118;-88
2023/08/10 08:41:09;;;;;;;2.15;1.25;;;26.20;77.20;;;;;;4972563;28;20031;-87
2023/08/10 08:43:36;;;;;;;1.13;0.93;;;26.20;77.40;;;;;;4976388;28;20089;-89
2023/08/10 08:46:04;;;;;;;1.60;1.10;;;26.30;76.80;;;;;;4989094;28;20046;-88
2023/08/10 08:48:30;;;;;;;2.10;1.10;;;26.40;77.20;;;;;;4979419;28;20488;-89
2023/08/10 08:50:57;;;;;;;1.30;0.95;;;26.40;76.40;;;;;;4974405;28;20062;-89
2023/08/10 08:53:24;;;;;;;1.30;0.90;;;26.50;76.20;;;;;;4956888;28;20385;-88
2023/08/10 08:55:50;;;;;;;2.55;1.05;;;26.50;76.10;;;;;;4973793;28;20110;-80
2023/08/10 08:58:17;;;;;;;2.45;1.27;;;26.60;76.60;;;;;;4975355;28;20037;-89
2023/08/10 09:00:53;;;;;;;1.38;1.00;;;26.60;76.20;;;;;;4979806;28;20031;-80
2023/08/10 09:03:22;;;;;;;1.75;1.00;;;26.60;75.90;;;;;;4973728;28;20102;-82
2023/08/10 09:05:48;;;;;;;1.35;0.88;;;26.50;76.00;;;;;;4969727;28;20051;-82
2023/08/10 09:08:18;;;;;;;1.45;0.93;;;26.50;76.10;;;;;;4983467;28;20065;-82
2023/08/10 09:10:47;;;;;;;3.08;1.08;;;26.60;76.90;;;;;;4974457;28;20129;-82
2023/08/10 09:13:17;;;;;;;2.80;0.85;;;26.60;77.00;;;;;;4976069;28;20023;-88
2023/08/10 09:15:43;;;;;;;2.70;0.90;;;26.60;76.70;;;;;;4956389;28;20113;-88
2023/08/10 09:18:09;;;;;;;1.63;0.95;;;26.80;77.50;;;;;;4975604;28;20026;-89
2023/08/10 09:20:34;;;;;;;2.25;0.85;;;26.90;76.40;;;;;;4975566;28;20031;-89
2023/08/10 09:23:01;;;;;;;3.50;1.35;;;27.00;75.60;;;;;;4975028;28;20035;-90
2023/08/10 09:25:33;;;;;;;2.20;1.10;;;27.10;74.30;;;;;;4975378;28;20030;-88
2023/08/10 09:27:59;;;;;;;3.10;1.00;;;27.20;75.20;;;;;;4977241;28;20090;-80
2023/08/10 09:30:25;;;;;;;1.92;1.25;;;27.20;74.90;;;;;;4973877;28;20035;-80
2023/08/10 09:32:50;;;;;;;1.35;0.95;;;27.30;74.40;;;;;;4979635;28;20067;-81
2023/08/10 09:35:18;;;;;;;2.67;1.13;;;27.40;74.00;;;;;;4955302;28;20027;-81
2023/08/10 09:37:46;;;;;;;3.15;1.50;;;27.40;73.60;;;;;;4978956;28;20092;-81
2023/08/10 09:40:15;;;;;;;3.33;1.48;;;27.40;73.20;;;;;;4973785;28;20117;-81
2023/08/10 09:42:41;;;;;;;4.32;1.17;;;27.40;73.80;;;;;;4978259;28;20027;-81
2023/08/10 09:45:12;;;;;;;2.42;1.20;;;27.40;74.60;;;;;;4974755;28;20035;-80
2023/08/10 09:47:41;;;;;;;2.78;1.27;;;27.50;74.20;;;;;;4975143;28;20118;-81
2023/08/10 09:50:15;;;;;;;1.42;1.13;;;27.60;74.40;;;;;;4987546;28;20487;-81
2023/08/10 09:52:41;;;;;;;1.45;1.05;;;27.80;73.70;;;;;;4968706;28;20370;-88
2023/08/10 09:55:09;;;;;;;1.45;0.93;;;27.90;74.20;;;;;;4972711;28;20046;-89
2023/08/10 09:57:44;;;;;;;2.63;1.17;;;28.00;74.50;;;;;;4974875;28;20061;-86
2023/08/10 10:00:16;;;;;;;2.63;1.10;;;28.20;73.70;;;;;;4971554;28;20058;-89
2023/08/10 10:02:42;;;;;;;1.40;1.00;;;28.30;73.00;;;;;;4962895;28;20031;-89
2023/08/10 10:05:08;;;;;;;1.83;0.90;;;28.40;73.00;;;;;;4964241;28;20073;-89
2023/08/10 10:07:34;;;;;;;1.02;0.90;;;28.50;72.60;;;;;;4964979;28;20023;-89
2023/08/10 10:10:01;;;;;;;1.65;1.05;;;28.60;72.20;;;;;;4966475;28;20031;-88
2023/08/10 10:12:29;;;;;;;1.77;0.90;;;28.70;71.90;;;;;;4964923;28;20039;-89
2023/08/10 10:14:55;;;;;;;1.13;0.95;;;28.90;71.80;;;;;;4959712;28;20054;-89
2023/08/10 10:17:22;;;;;;;1.13;1.00;;;29.00;70.90;;;;;;4955589;29;20470;-89
2023/08/10 10:19:50;;;;;;;3.65;1.00;;;29.10;70.40;;;;;;4970498;28;20126;-89
2023/08/10 10:22:17;;;;;;;2.00;1.05;;;29.20;70.70;;;;;;4973133;28;20030;-88
2023/08/10 10:24:43;;;;;;;2.30;1.45;;;29.40;70.40;;;;;;4969399;28;20023;-89
2023/08/10 10:27:11;;;;;;;3.22;0.98;;;29.50;69.50;;;;;;4967623;28;20106;-89
2023/08/10 10:29:51;;;;;;;1.58;1.17;;;29.50;69.50;;;;;;4977327;28;20105;-89
2023/08/10 10:32:19;;;;;;;3.42;1.15;;;29.60;69.50;;;;;;4970790;28;20499;-89
2023/08/10 10:34:45;;;;;;;1.30;0.90;;;29.70;69.70;;;;;;4980900;28;20036;-88
2023/08/10 10:37:16;;;;;;;1.45;1.02;;;29.80;69.90;;;;;;4972351;28;20031;-88
2023/08/10 10:39:45;;;;;;;1.00;0.80;;;29.90;69.80;;;;;;4974023;28;20037;-88
2023/08/10 10:42:12;;;;;;;1.17;0.70;;;29.90;68.70;;;;;;4968605;28;20027;-89
2023/08/10 10:44:56;;;;;;;2.08;0.90;;;30.00;69.00;;;;;;4971421;28;20062;-89
2023/08/10 10:47:39;;;;;;;0.90;0.70;;;30.10;68.60;;;;;;4977806;28;20062;-89
2023/08/10 10:50:19;;;;;;;1.52;1.00;;;30.10;68.00;;;;;;4971909;28;20519;-89
2023/08/10 10:52:55;;;;;;;1.98;0.95;;;30.10;69.00;;;;;;4978686;28;20054;-89
2023/08/10 10:55:22;;;;;;;2.72;0.80;;;30.20;68.10;;;;;;4966891;28;20378;-88
2023/08/10 10:57:49;;;;;;;1.58;1.00;;;30.20;67.90;;;;;;4970201;28;20054;-90
2023/08/10 11:00:16;;;;;;;0.60;0.50;;;30.30;67.90;;;;;;4972789;28;20045;-87
2023/08/10 11:02:42;;;;;;;0.77;0.70;;;30.30;67.90;;;;;;4973931;28;20035;-88
2023/08/10 11:05:18;;;;;;;2.25;1.15;;;30.40;67.70;;;;;;4973089;28;20041;-90
2023/08/10 11:07:47;;;;;;;1.48;0.95;;;30.40;66.30;;;;;;4973158;28;20030;-81
2023/08/10 11:10:13;;;;;;;1.02;0.80;;;30.40;67.60;;;;;;4988531;28;20110;-90
2023/08/10 11:12:41;;;;;;;1.20;0.70;;;30.40;67.60;;;;;;4975623;28;20059;-81
2023/08/10 11:15:08;;;;;;;0.60;0.50;;;30.40;67.40;;;;;;4980382;28;20452;-81
2023/08/10 11:17:38;;;;;;;1.23;0.75;;;30.50;67.00;;;;;;4969891;28;20545;-80
2023/08/10 11:20:11;;;;;;;;;;;30.60;67.50;;;;;;4975351;28;20042;-80
2023/08/10 11:22:38;;;;;;;0.70;0.70;;;30.60;66.70;;;;;;4969643;28;21668;-80
2023/08/10 11:25:12;;;;;;;3.22;0.88;;;30.60;66.30;;;;;;4964315;28;20046;-81
2023/08/10 11:27:41;;;;;;;0.80;0.80;;;30.60;66.50;;;;;;4973342;28;20023;-81
2023/08/10 11:30:09;;;;;;;2.13;0.73;;;30.60;66.90;;;;;;4950029;28;20761;-80
2023/08/10 11:32:47;;;;;;;2.78;0.90;;;30.60;66.70;;;;;;4963120;28;20038;-80
2023/08/10 11:35:18;;;;;;;1.00;0.70;;;30.60;66.60;;;;;;4970016;28;20082;-80
2023/08/10 11:37:44;;;;;;;3.80;0.70;;;30.70;67.00;;;;;;4972656;28;20078;-80
2023/08/10 11:40:16;;;;;;;1.30;0.90;;;30.80;66.80;;;;;;4971780;28;20059;-80
2023/08/10 11:42:47;;;;;;;1.20;0.80;;;30.80;66.90;;;;;;4973624;28;20035;-79
2023/08/10 11:45:20;;;;;;;0.95;0.68;;;30.90;66.80;;;;;;4972372;28;20398;-80
2023/08/10 11:47:47;;;;;;;1.70;0.70;;;31.00;65.60;;;;;;4973371;28;20026;-80
2023/08/10 11:50:17;;;;;;;0.93;0.90;;;31.10;65.80;;;;;;4960543;28;20042;-80
2023/08/10 11:52:44;;;;;;;1.80;0.80;;;31.30;66.00;;;;;;4975129;28;20143;-80
2023/08/10 11:55:15;;;;;;;2.00;0.85;;;31.60;66.00;;;;;;4977199;28;20034;-81
2023/08/10 11:57:48;;;;;;;2.63;0.90;;;32.00;65.90;;;;;;4976945;28;20481;-80
2023/08/10 12:00:30;;;;;;;1.33;0.75;;;32.20;65.20;;;;;;4977461;28;20042;-89
2023/08/10 12:03:12;;;;;;;1.50;1.00;;;32.50;65.30;;;;;;4977296;28;20051;-89
2023/08/10 12:05:46;;;;;;;1.30;0.88;;;32.60;64.80;;;;;;4976874;28;20050;-89
2023/08/10 12:08:20;;;;;;;2.38;1.00;;;32.80;63.40;;;;;;4969610;28;20030;-89
2023/08/10 12:10:51;;;;;;;2.90;0.90;;;33.00;63.60;;;;;;4976852;28;20107;-89
2023/08/10 12:13:18;;;;;;;2.45;0.80;;;33.00;62.90;;;;;;4959140;28;20054;-89
2023/08/10 12:15:49;;;;;;;1.27;0.70;;;33.00;63.00;;;;;;4976987;28;20039;-89
2023/08/10 12:18:16;;;;;;;1.98;0.90;;;33.00;62.20;;;;;;4976886;28;20026;-89
2023/08/10 12:20:47;;;;;;;2.17;0.98;;;33.00;62.80;;;;;;4945074;28;20038;-89
2023/08/10 12:23:13;;;;;;;1.52;0.80;;;33.10;62.30;;;;;;4955867;28;20471;-89
2023/08/10 12:25:40;;;;;;;3.67;1.20;;;33.40;62.10;;;;;;4975435;28;20043;-88
2023/08/10 12:28:06;;;;;;;3.00;0.88;;;33.70;61.50;;;;;;4975601;28;20110;-89
2023/08/10 12:30:34;;;;;;;0.70;0.70;;;33.90;61.20;;;;;;4976674;28;20121;-89
2023/08/10 12:33:01;;;;;;;1.27;0.90;;;34.10;60.60;;;;;;4970365;28;20038;-89
2023/08/10 12:35:27;;;;;;;1.73;0.90;;;34.10;59.90;;;;;;4973615;28;20031;-90
2023/08/10 12:37:53;;;;;;;3.50;0.90;;;34.10;59.50;;;;;;4972857;28;20037;-89
2023/08/10 12:40:19;;;;;;;1.73;0.70;;;34.10;60.20;;;;;;4973426;28;20482;-89
2023/08/10 12:42:45;;;;;;;1.02;0.68;;;34.10;58.60;;;;;;4976249;28;20497;-81
2023/08/10 12:45:12;;;;;;;0.70;0.70;;;33.90;58.40;;;;;;4958465;28;20524;-89
2023/08/10 12:47:39;;;;;;;2.83;0.85;;;33.70;58.90;;;;;;4970368;28;20028;-88
2023/08/10 12:50:06;;;;;;;1.02;0.80;;;33.50;59.20;;;;;;4968633;28;20042;-88
2023/08/10 12:52:32;;;;;;;3.13;0.77;;;33.30;59.80;;;;;;4976392;28;20055;-89